sensor_id;sensor_type;location;lat;lon;timestamp;pressure;altitude;pressure_sealevel;temperature;humidity
9839;BME280;4958;48.150;11.506;2023-01-26T00:00:27;95986.34;;;2.14;84.22
9839;BME280;4958;48.150;11.506;2023-01-26T00:02:55;95977.09;;;2.13;84.88
9839;BME280;4958;48.150;11.506;2023-01-26T00:05:23;95970.75;;;2.19;84.67
9839;BME280;4958;48.150;11.506;2023-01-26T00:07:49;95966.84;;;2.26;84.37
9839;BME280;4958;48.150;11.506;2023-01-26T00:10:16;95973.75;;;2.24;83.68
9839;BME280;4958;48.150;11.506;2023-01-26T00:12:43;95970.31;;;2.25;84.27
9839;BME280;4958;48.150;11.506;2023-01-26T00:15:11;95964.97;;;2.17;82.84
9839;BME280;4958;48.150;11.506;2023-01-26T00:17:37;95959.66;;;2.20;83.96
9839;BME280;4958;48.150;11.506;2023-01-26T00:20:07;95954.47;;;2.21;84.15
9839;BME280;4958;48.150;11.506;2023-01-26T00:22:34;95947.44;;;2.14;84.09
9839;BME280;4958;48.150;11.506;2023-01-26T00:25:00;95947.22;;;2.05;84.13
9839;BME280;4958;48.150;11.506;2023-01-26T00:27:27;95945.25;;;2.09;84.92
9839;BME280;4958;48.150;11.506;2023-01-26T00:29:55;95945.69;;;2.14;84.65
9839;BME280;4958;48.150;11.506;2023-01-26T00:32:23;95950.31;;;2.20;84.18
9839;BME280;4958;48.150;11.506;2023-01-26T00:34:50;95951.94;;;2.21;83.98
9839;BME280;4958;48.150;11.506;2023-01-26T00:37:23;95947.31;;;2.26;84.19
9839;BME280;4958;48.150;11.506;2023-01-26T00:39:50;95953.44;;;2.13;83.51
9839;BME280;4958;48.150;11.506;2023-01-26T00:42:16;95949.03;;;2.15;84.02
9839;BME280;4958;48.150;11.506;2023-01-26T00:44:43;95954.81;;;2.17;83.81
9839;BME280;4958;48.150;11.506;2023-01-26T00:47:11;95949.41;;;2.21;83.85
9839;BME280;4958;48.150;11.506;2023-01-26T00:49:39;95946.53;;;1.92;83.63
9839;BME280;4958;48.150;11.506;2023-01-26T00:52:07;95941.19;;;1.95;84.17
9839;BME280;4958;48.150;11.506;2023-01-26T00:54:34;95942.00;;;1.96;83.22
9839;BME280;4958;48.150;11.506;2023-01-26T00:57:00;95946.03;;;1.98;83.63
9839;BME280;4958;48.150;11.506;2023-01-26T00:59:29;95935.44;;;2.04;83.81
9839;BME280;4958;48.150;11.506;2023-01-26T01:01:56;95930.00;;;2.09;84.34
9839;BME280;4958;48.150;11.506;2023-01-26T01:04:23;95933.00;;;2.14;84.30
9839;BME280;4958;48.150;11.506;2023-01-26T01:06:55;95938.19;;;2.13;84.29
9839;BME280;4958;48.150;11.506;2023-01-26T01:09:21;95935.78;;;2.11;83.15
9839;BME280;4958;48.150;11.506;2023-01-26T01:11:48;95932.31;;;2.12;83.50
9839;BME280;4958;48.150;11.506;2023-01-26T01:14:18;95928.41;;;2.08;83.38
9839;BME280;4958;48.150;11.506;2023-01-26T01:16:46;95922.50;;;2.07;83.23
9839;BME280;4958;48.150;11.506;2023-01-26T01:19:16;95932.56;;;2.09;83.99
9839;BME280;4958;48.150;11.506;2023-01-26T01:21:43;95929.56;;;2.04;83.77
9839;BME280;4958;48.150;11.506;2023-01-26T01:24:12;95937.16;;;2.04;83.32
9839;BME280;4958;48.150;11.506;2023-01-26T01:26:39;95929.78;;;1.90;84.21
9839;BME280;4958;48.150;11.506;2023-01-26T01:29:06;95932.31;;;1.90;84.63
9839;BME280;4958;48.150;11.506;2023-01-26T01:31:35;95928.75;;;1.92;84.57
9839;BME280;4958;48.150;11.506;2023-01-26T01:34:02;95931.84;;;1.96;84.21
9839;BME280;4958;48.150;11.506;2023-01-26T01:36:32;95932.06;;;1.93;83.77
9839;BME280;4958;48.150;11.506;2023-01-26T01:39:03;95920.56;;;1.89;83.81
9839;BME280;4958;48.150;11.506;2023-01-26T01:41:31;95928.75;;;1.92;83.90
9839;BME280;4958;48.150;11.506;2023-01-26T01:44:15;95930.13;;;1.96;83.86
9839;BME280;4958;48.150;11.506;2023-01-26T01:46:45;95929.78;;;2.01;84.43
9839;BME280;4958;48.150;11.506;2023-01-26T01:49:17;95928.03;;;2.01;85.06
9839;BME280;4958;48.150;11.506;2023-01-26T01:51:49;95929.44;;;2.05;85.42
9839;BME280;4958;48.150;11.506;2023-01-26T01:54:20;95921.00;;;2.05;85.58
9839;BME280;4958;48.150;11.506;2023-01-26T01:56:52;95924.59;;;2.02;85.82
9839;BME280;4958;48.150;11.506;2023-01-26T01:59:20;95929.31;;;1.96;85.84
9839;BME280;4958;48.150;11.506;2023-01-26T02:01:49;95920.78;;;1.97;86.12
9839;BME280;4958;48.150;11.506;2023-01-26T02:04:18;95917.19;;;1.99;86.10
9839;BME280;4958;48.150;11.506;2023-01-26T02:06:48;95923.78;;;2.02;86.16
9839;BME280;4958;48.150;11.506;2023-01-26T02:09:15;95914.19;;;2.05;86.12
9839;BME280;4958;48.150;11.506;2023-01-26T02:12:01;95916.41;;;2.10;85.61
9839;BME280;4958;48.150;11.506;2023-01-26T02:14:28;95918.00;;;2.11;85.33
9839;BME280;4958;48.150;11.506;2023-01-26T02:16:55;95915.09;;;2.16;85.11
9839;BME280;4958;48.150;11.506;2023-01-26T02:19:37;95911.22;;;2.12;85.21
9839;BME280;4958;48.150;11.506;2023-01-26T02:22:16;95904.94;;;2.16;85.12
9839;BME280;4958;48.150;11.506;2023-01-26T02:24:48;95899.31;;;2.01;85.20
9839;BME280;4958;48.150;11.506;2023-01-26T02:27:17;95901.63;;;2.04;85.81
9839;BME280;4958;48.150;11.506;2023-01-26T02:29:44;95893.78;;;2.07;86.00
9839;BME280;4958;48.150;11.506;2023-01-26T02:32:10;95892.16;;;2.06;85.65
9839;BME280;4958;48.150;11.506;2023-01-26T02:34:39;95891.81;;;2.11;85.31
9839;BME280;4958;48.150;11.506;2023-01-26T02:37:12;95883.13;;;2.13;85.48
9839;BME280;4958;48.150;11.506;2023-01-26T02:39:48;95883.81;;;2.15;84.95
9839;BME280;4958;48.150;11.506;2023-01-26T02:42:17;95869.16;;;2.19;84.96
9839;BME280;4958;48.150;11.506;2023-01-26T02:45:05;95871.69;;;2.19;84.30
9839;BME280;4958;48.150;11.506;2023-01-26T02:47:35;95868.81;;;2.12;84.04
9839;BME280;4958;48.150;11.506;2023-01-26T02:50:02;95859.72;;;1.98;84.41
9839;BME280;4958;48.150;11.506;2023-01-26T02:52:29;95859.59;;;2.00;84.83
9839;BME280;4958;48.150;11.506;2023-01-26T02:54:56;95859.38;;;2.03;84.85
9839;BME280;4958;48.150;11.506;2023-01-26T02:57:57;95856.03;;;2.02;84.59
9839;BME280;4958;48.150;11.506;2023-01-26T03:00:25;95849.44;;;2.00;84.68
9839;BME280;4958;48.150;11.506;2023-01-26T03:02:54;95849.91;;;1.94;85.07
9839;BME280;4958;48.150;11.506;2023-01-26T03:05:21;95842.16;;;1.95;85.55
9839;BME280;4958;48.150;11.506;2023-01-26T03:07:48;95841.03;;;1.99;85.11
9839;BME280;4958;48.150;11.506;2023-01-26T03:10:15;95844.03;;;2.04;84.61
9839;BME280;4958;48.150;11.506;2023-01-26T03:12:42;95841.03;;;2.11;84.48
9839;BME280;4958;48.150;11.506;2023-01-26T03:15:13;95841.59;;;2.03;84.38
9839;BME280;4958;48.150;11.506;2023-01-26T03:18:01;95846.44;;;2.06;83.80
9839;BME280;4958;48.150;11.506;2023-01-26T03:20:46;95840.22;;;2.10;84.14
9839;BME280;4958;48.150;11.506;2023-01-26T03:23:29;95830.72;;;2.12;83.89
9839;BME280;4958;48.150;11.506;2023-01-26T03:26:15;95830.97;;;2.09;83.53
9839;BME280;4958;48.150;11.506;2023-01-26T03:28:59;95834.91;;;2.02;83.56
9839;BME280;4958;48.150;11.506;2023-01-26T03:31:27;95838.94;;;2.04;83.94
9839;BME280;4958;48.150;11.506;2023-01-26T03:33:53;95833.63;;;2.07;83.90
9839;BME280;4958;48.150;11.506;2023-01-26T03:36:20;95835.25;;;2.08;83.32
9839;BME280;4958;48.150;11.506;2023-01-26T03:38:46;95833.41;;;1.99;83.27
9839;BME280;4958;48.150;11.506;2023-01-26T03:41:13;95834.31;;;1.98;83.91
9839;BME280;4958;48.150;11.506;2023-01-26T03:43:57;95834.81;;;1.92;84.26
9839;BME280;4958;48.150;11.506;2023-01-26T03:46:42;95830.16;;;1.97;84.42
9839;BME280;4958;48.150;11.506;2023-01-26T03:49:26;95838.00;;;1.94;84.65
9839;BME280;4958;48.150;11.506;2023-01-26T03:52:10;95834.44;;;1.97;84.75
9839;BME280;4958;48.150;11.506;2023-01-26T03:54:56;95835.72;;;2.02;84.72
9839;BME280;4958;48.150;11.506;2023-01-26T03:57:40;95829.59;;;1.94;83.99
9839;BME280;4958;48.150;11.506;2023-01-26T04:00:07;95834.13;;;1.90;84.48
9839;BME280;4958;48.150;11.506;2023-01-26T04:02:35;95834.00;;;1.92;84.69
9839;BME280;4958;48.150;11.506;2023-01-26T04:05:20;95832.81;;;1.96;84.65
9839;BME280;4958;48.150;11.506;2023-01-26T04:08:05;95834.31;;;1.98;84.39
9839;BME280;4958;48.150;11.506;2023-01-26T04:10:48;95831.78;;;1.98;84.20
9839;BME280;4958;48.150;11.506;2023-01-26T04:13:16;95822.81;;;1.83;84.29
9839;BME280;4958;48.150;11.506;2023-01-26T04:16:00;95832.38;;;1.91;84.60
9839;BME280;4958;48.150;11.506;2023-01-26T04:18:45;95824.28;;;1.97;84.57
9839;BME280;4958;48.150;11.506;2023-01-26T04:21:29;95817.13;;;2.02;84.08
9839;BME280;4958;48.150;11.506;2023-01-26T04:24:00;95820.47;;;2.02;84.02
9839;BME280;4958;48.150;11.506;2023-01-26T04:26:34;95815.50;;;2.01;83.50
9839;BME280;4958;48.150;11.506;2023-01-26T04:29:01;95807.13;;;1.89;83.12
9839;BME280;4958;48.150;11.506;2023-01-26T04:31:27;95806.88;;;1.81;83.28
9839;BME280;4958;48.150;11.506;2023-01-26T04:33:55;95816.69;;;1.86;84.03
9839;BME280;4958;48.150;11.506;2023-01-26T04:36:23;95814.75;;;1.89;84.27
9839;BME280;4958;48.150;11.506;2023-01-26T04:38:52;95812.50;;;1.96;84.21
9839;BME280;4958;48.150;11.506;2023-01-26T04:41:18;95808.34;;;1.95;83.84
9839;BME280;4958;48.150;11.506;2023-01-26T04:43:45;95804.47;;;1.91;83.47
9839;BME280;4958;48.150;11.506;2023-01-26T04:46:12;95812.50;;;1.96;83.80
9839;BME280;4958;48.150;11.506;2023-01-26T04:48:39;95808.13;;;1.98;83.53
9839;BME280;4958;48.150;11.506;2023-01-26T04:51:11;95799.47;;;2.00;83.42
9839;BME280;4958;48.150;11.506;2023-01-26T04:53:37;95801.88;;;2.02;83.50
9839;BME280;4958;48.150;11.506;2023-01-26T04:56:04;95804.19;;;2.05;83.25
9839;BME280;4958;48.150;11.506;2023-01-26T04:58:33;95799.56;;;2.10;83.04
9839;BME280;4958;48.150;11.506;2023-01-26T05:01:04;95804.53;;;2.12;82.63
9839;BME280;4958;48.150;11.506;2023-01-26T05:03:31;95805.19;;;2.14;82.96
9839;BME280;4958;48.150;11.506;2023-01-26T05:06:06;95807.72;;;2.25;95.71
9839;BME280;4958;48.150;11.506;2023-01-26T05:08:40;95812.16;;;2.43;87.73
9839;BME280;4958;48.150;11.506;2023-01-26T05:11:07;95807.91;;;2.33;82.26
9839;BME280;4958;48.150;11.506;2023-01-26T05:13:33;95814.19;;;2.29;83.24
9839;BME280;4958;48.150;11.506;2023-01-26T05:16:03;95806.81;;;2.26;82.78
9839;BME280;4958;48.150;11.506;2023-01-26T05:18:41;95808.09;;;2.20;82.63
9839;BME280;4958;48.150;11.506;2023-01-26T05:21:09;95804.72;;;2.20;82.88
9839;BME280;4958;48.150;11.506;2023-01-26T05:23:36;95811.44;;;2.21;82.90
9839;BME280;4958;48.150;11.506;2023-01-26T05:26:04;95814.53;;;2.24;82.17
9839;BME280;4958;48.150;11.506;2023-01-26T05:28:30;95806.75;;;2.05;81.89
9839;BME280;4958;48.150;11.506;2023-01-26T05:30:57;95812.38;;;2.08;82.83
9839;BME280;4958;48.150;11.506;2023-01-26T05:33:24;95807.31;;;2.08;82.74
9839;BME280;4958;48.150;11.506;2023-01-26T05:35:52;95802.13;;;2.10;83.01
9839;BME280;4958;48.150;11.506;2023-01-26T05:38:19;95807.00;;;1.91;82.23
9839;BME280;4958;48.150;11.506;2023-01-26T05:40:46;95810.22;;;1.93;83.50
9839;BME280;4958;48.150;11.506;2023-01-26T05:43:16;95804.34;;;1.92;83.48
9839;BME280;4958;48.150;11.506;2023-01-26T05:45:43;95813.69;;;1.92;83.54
9839;BME280;4958;48.150;11.506;2023-01-26T05:48:09;95805.94;;;1.93;83.50
9839;BME280;4958;48.150;11.506;2023-01-26T05:50:37;95801.31;;;1.98;83.39
9839;BME280;4958;48.150;11.506;2023-01-26T05:53:07;95807.47;;;1.85;83.38
9839;BME280;4958;48.150;11.506;2023-01-26T05:55:33;95805.63;;;1.87;83.77
9839;BME280;4958;48.150;11.506;2023-01-26T05:58:02;95814.28;;;1.84;83.15
9839;BME280;4958;48.150;11.506;2023-01-26T06:00:33;95813.00;;;1.90;83.90
9839;BME280;4958;48.150;11.506;2023-01-26T06:02:59;95813.22;;;1.98;83.22
9839;BME280;4958;48.150;11.506;2023-01-26T06:05:28;95811.59;;;1.97;83.10
9839;BME280;4958;48.150;11.506;2023-01-26T06:07:54;95817.13;;;2.02;83.38
9839;BME280;4958;48.150;11.506;2023-01-26T06:10:21;95811.69;;;2.06;82.73
9839;BME280;4958;48.150;11.506;2023-01-26T06:12:47;95821.84;;;2.06;82.63
9839;BME280;4958;48.150;11.506;2023-01-26T06:15:23;95825.44;;;1.93;86.83
9839;BME280;4958;48.150;11.506;2023-01-26T06:17:53;95817.34;;;1.99;85.23
9839;BME280;4958;48.150;11.506;2023-01-26T06:20:22;95822.56;;;2.08;84.32
9839;BME280;4958;48.150;11.506;2023-01-26T06:22:48;95820.56;;;2.12;83.63
9839;BME280;4958;48.150;11.506;2023-01-26T06:25:18;95810.16;;;2.15;82.84
9839;BME280;4958;48.150;11.506;2023-01-26T06:27:45;95812.38;;;2.08;82.47
9839;BME280;4958;48.150;11.506;2023-01-26T06:30:26;95806.97;;;2.02;82.36
9839;BME280;4958;48.150;11.506;2023-01-26T06:32:57;95811.72;;;1.95;96.93
9839;BME280;4958;48.150;11.506;2023-01-26T06:35:27;95815.53;;;1.90;93.69
9839;BME280;4958;48.150;11.506;2023-01-26T06:37:53;95810.91;;;1.95;89.06
9839;BME280;4958;48.150;11.506;2023-01-26T06:40:50;95816.66;;;2.08;84.86
9839;BME280;4958;48.150;11.506;2023-01-26T06:43:16;95814.00;;;2.10;84.08
9839;BME280;4958;48.150;11.506;2023-01-26T06:45:43;95811.47;;;2.10;82.90
9839;BME280;4958;48.150;11.506;2023-01-26T06:48:18;95814.94;;;2.08;82.91
9839;BME280;4958;48.150;11.506;2023-01-26T06:50:55;95813.19;;;2.09;82.72
9839;BME280;4958;48.150;11.506;2023-01-26T06:53:25;95811.47;;;2.10;82.96
9839;BME280;4958;48.150;11.506;2023-01-26T06:55:58;95809.16;;;2.06;81.84
9839;BME280;4958;48.150;11.506;2023-01-26T06:58:25;95806.38;;;2.10;81.62
9839;BME280;4958;48.150;11.506;2023-01-26T07:00:52;95805.00;;;2.05;81.65
9839;BME280;4958;48.150;11.506;2023-01-26T07:03:20;95799.69;;;2.08;81.93
9839;BME280;4958;48.150;11.506;2023-01-26T07:05:46;95802.00;;;2.12;81.45
9839;BME280;4958;48.150;11.506;2023-01-26T07:08:18;95807.63;;;2.15;81.67
9839;BME280;4958;48.150;11.506;2023-01-26T07:10:45;95805.88;;;2.16;81.63
9839;BME280;4958;48.150;11.506;2023-01-26T07:13:18;95795.53;;;2.07;81.17
9839;BME280;4958;48.150;11.506;2023-01-26T07:15:45;95803.97;;;2.08;81.67
9839;BME280;4958;48.150;11.506;2023-01-26T07:18:14;95803.72;;;2.11;82.17
9839;BME280;4958;48.150;11.506;2023-01-26T07:20:42;95800.38;;;2.11;81.89
9839;BME280;4958;48.150;11.506;2023-01-26T07:23:11;95803.03;;;2.09;81.43
9839;BME280;4958;48.150;11.506;2023-01-26T07:25:42;95794.84;;;2.05;82.31
9839;BME280;4958;48.150;11.506;2023-01-26T07:28:22;95807.19;;;2.10;82.03
9839;BME280;4958;48.150;11.506;2023-01-26T07:30:50;95798.66;;;2.00;81.94
9839;BME280;4958;48.150;11.506;2023-01-26T07:33:24;95798.78;;;1.98;82.29
9839;BME280;4958;48.150;11.506;2023-01-26T07:35:55;95803.63;;;2.01;82.00
9839;BME280;4958;48.150;11.506;2023-01-26T07:38:25;95804.19;;;2.05;82.10
9839;BME280;4958;48.150;11.506;2023-01-26T07:40:58;95802.81;;;2.01;81.69
9839;BME280;4958;48.150;11.506;2023-01-26T07:44:10;95793.94;;;1.95;81.82
9839;BME280;4958;48.150;11.506;2023-01-26T07:46:53;95799.13;;;1.94;82.59
9839;BME280;4958;48.150;11.506;2023-01-26T07:49:25;95799.47;;;2.00;82.40
9839;BME280;4958;48.150;11.506;2023-01-26T07:51:53;95793.38;;;1.92;82.10
9839;BME280;4958;48.150;11.506;2023-01-26T07:54:20;95791.66;;;1.92;82.37
9839;BME280;4958;48.150;11.506;2023-01-26T07:56:51;95786.59;;;1.92;82.52
9839;BME280;4958;48.150;11.506;2023-01-26T07:59:19;95782.53;;;1.90;82.52
9839;BME280;4958;48.150;11.506;2023-01-26T08:01:47;95786.69;;;1.80;82.48
9839;BME280;4958;48.150;11.506;2023-01-26T08:04:17;95793.72;;;1.76;83.48
9839;BME280;4958;48.150;11.506;2023-01-26T08:06:43;95788.78;;;1.74;83.82
9839;BME280;4958;48.150;11.506;2023-01-26T08:09:30;95789.94;;;1.82;83.45
9839;BME280;4958;48.150;11.506;2023-01-26T08:11:57;95788.78;;;1.86;82.96
9839;BME280;4958;48.150;11.506;2023-01-26T08:14:26;95784.03;;;1.92;82.77
9839;BME280;4958;48.150;11.506;2023-01-26T08:16:57;95781.63;;;1.91;82.22
9839;BME280;4958;48.150;11.506;2023-01-26T08:19:27;95780.78;;;2.01;82.19
9839;BME280;4958;48.150;11.506;2023-01-26T08:21:58;95781.47;;;2.03;81.93
9839;BME280;4958;48.150;11.506;2023-01-26T08:24:29;95773.59;;;2.06;81.23
9839;BME280;4958;48.150;11.506;2023-01-26T08:26:55;95769.47;;;2.05;81.56
9839;BME280;4958;48.150;11.506;2023-01-26T08:29:22;95770.72;;;2.00;81.84
9839;BME280;4958;48.150;11.506;2023-01-26T08:31:48;95770.38;;;2.04;82.23
9839;BME280;4958;48.150;11.506;2023-01-26T08:34:15;95770.25;;;2.06;81.40
9839;BME280;4958;48.150;11.506;2023-01-26T08:36:44;95769.91;;;2.11;81.03
9839;BME280;4958;48.150;11.506;2023-01-26T08:39:11;95773.50;;;2.08;80.57
9839;BME280;4958;48.150;11.506;2023-01-26T08:41:38;95769.34;;;2.07;80.90
9839;BME280;4958;48.150;11.506;2023-01-26T08:44:05;95774.19;;;2.10;80.70
9839;BME280;4958;48.150;11.506;2023-01-26T08:46:34;95774.78;;;2.02;81.57
9839;BME280;4958;48.150;11.506;2023-01-26T08:49:07;95773.72;;;2.05;81.33
9839;BME280;4958;48.150;11.506;2023-01-26T08:51:37;95769.22;;;2.08;81.29
9839;BME280;4958;48.150;11.506;2023-01-26T08:54:06;95764.03;;;2.10;80.70
9839;BME280;4958;48.150;11.506;2023-01-26T08:56:48;95777.25;;;2.14;80.83
9839;BME280;4958;48.150;11.506;2023-01-26T08:59:19;95768.25;;;2.21;80.32
9839;BME280;4958;48.150;11.506;2023-01-26T09:01:49;95775.63;;;2.24;80.55
9839;BME280;4958;48.150;11.506;2023-01-26T09:04:16;95775.28;;;2.17;80.52
9839;BME280;4958;48.150;11.506;2023-01-26T09:06:43;95771.59;;;2.21;80.10
9839;BME280;4958;48.150;11.506;2023-01-26T09:09:09;95773.09;;;2.24;80.61
9839;BME280;4958;48.150;11.506;2023-01-26T09:11:37;95772.84;;;2.27;80.06
9839;BME280;4958;48.150;11.506;2023-01-26T09:14:08;95772.28;;;2.23;79.36
9839;BME280;4958;48.150;11.506;2023-01-26T09:16:39;95771.34;;;2.24;79.60
9839;BME280;4958;48.150;11.506;2023-01-26T09:19:08;95773.66;;;2.27;80.23
9839;BME280;4958;48.150;11.506;2023-01-26T09:21:39;95781.53;;;2.24;79.80
9839;BME280;4958;48.150;11.506;2023-01-26T09:24:08;95779.78;;;2.25;79.58
9839;BME280;4958;48.150;11.506;2023-01-26T09:26:40;95772.72;;;2.28;79.86
9839;BME280;4958;48.150;11.506;2023-01-26T09:29:11;95781.53;;;2.13;79.98
9839;BME280;4958;48.150;11.506;2023-01-26T09:31:37;95783.16;;;2.14;79.94
9839;BME280;4958;48.150;11.506;2023-01-26T09:34:05;95779.22;;;2.21;80.01
9839;BME280;4958;48.150;11.506;2023-01-26T09:36:31;95790.88;;;2.24;79.59
9839;BME280;4958;48.150;11.506;2023-01-26T09:39:04;95784.28;;;2.21;79.23
9839;BME280;4958;48.150;11.506;2023-01-26T09:41:54;95783.59;;;2.19;78.72
9839;BME280;4958;48.150;11.506;2023-01-26T09:44:30;95782.56;;;2.22;78.73
9839;BME280;4958;48.150;11.506;2023-01-26T09:47:07;95783.25;;;2.24;79.27
9839;BME280;4958;48.150;11.506;2023-01-26T09:49:55;95790.75;;;2.25;78.86
9839;BME280;4958;48.150;11.506;2023-01-26T09:52:30;95786.16;;;2.19;78.48
9839;BME280;4958;48.150;11.506;2023-01-26T09:55:03;95789.13;;;2.24;78.65
9839;BME280;4958;48.150;11.506;2023-01-26T09:57:40;95784.88;;;2.14;79.09
9839;BME280;4958;48.150;11.506;2023-01-26T10:00:20;95784.06;;;2.13;79.33
9839;BME280;4958;48.150;11.506;2023-01-26T10:03:12;95771.66;;;2.10;79.69
9839;BME280;4958;48.150;11.506;2023-01-26T10:06:13;95776.84;;;2.08;79.39
9839;BME280;4958;48.150;11.506;2023-01-26T10:08:48;95777.31;;;2.02;79.65
9839;BME280;4958;48.150;11.506;2023-01-26T10:11:20;95772.13;;;2.04;82.02
9839;BME280;4958;48.150;11.506;2023-01-26T10:13:55;95770.16;;;2.07;80.40
9839;BME280;4958;48.150;11.506;2023-01-26T10:16:24;95777.84;;;2.17;80.37
9839;BME280;4958;48.150;11.506;2023-01-26T10:19:02;95759.59;;;2.23;79.85
9839;BME280;4958;48.150;11.506;2023-01-26T10:21:32;95760.38;;;2.24;78.46
9839;BME280;4958;48.150;11.506;2023-01-26T10:24:02;95769.38;;;2.28;78.91
9839;BME280;4958;48.150;11.506;2023-01-26T10:26:31;95774.72;;;2.25;78.57
9839;BME280;4958;48.150;11.506;2023-01-26T10:28:58;95768.25;;;2.21;78.68
9839;BME280;4958;48.150;11.506;2023-01-26T10:31:28;95763.28;;;2.19;78.52
9839;BME280;4958;48.150;11.506;2023-01-26T10:34:08;95748.16;;;2.29;78.62
9839;BME280;4958;48.150;11.506;2023-01-26T10:36:45;95759.66;;;2.33;78.35
9839;BME280;4958;48.150;11.506;2023-01-26T10:39:22;95752.94;;;2.32;78.18
9839;BME280;4958;48.150;11.506;2023-01-26T10:42:17;95755.75;;;2.29;77.74
9839;BME280;4958;48.150;11.506;2023-01-26T10:44:49;95747.88;;;2.32;77.78
9839;BME280;4958;48.150;11.506;2023-01-26T10:47:28;95749.59;;;2.31;76.69
9839;BME280;4958;48.150;11.506;2023-01-26T10:53:02;95753.22;;;2.29;76.85
9839;BME280;4958;48.150;11.506;2023-01-26T10:55:35;95746.81;;;2.34;77.25
9839;BME280;4958;48.150;11.506;2023-01-26T10:58:04;95750.63;;;2.40;77.22
9839;BME280;4958;48.150;11.506;2023-01-26T11:00:32;95749.56;;;2.42;76.91
9839;BME280;4958;48.150;11.506;2023-01-26T11:03:05;95742.56;;;2.35;76.66
9839;BME280;4958;48.150;11.506;2023-01-26T11:05:41;95742.78;;;2.32;76.54
9839;BME280;4958;48.150;11.506;2023-01-26T11:08:30;95733.44;;;2.32;76.73
9839;BME280;4958;48.150;11.506;2023-01-26T11:11:26;95729.97;;;2.33;75.84
9839;BME280;4958;48.150;11.506;2023-01-26T11:14:17;95733.19;;;2.35;75.65
9839;BME280;4958;48.150;11.506;2023-01-26T11:17:17;95733.59;;;2.31;76.41
9839;BME280;4958;48.150;11.506;2023-01-26T11:20:23;95733.31;;;2.34;76.59
9839;BME280;4958;48.150;11.506;2023-01-26T11:22:57;95735.25;;;2.41;76.79
9839;BME280;4958;48.150;11.506;2023-01-26T11:25:47;95742.41;;;2.48;76.81
9839;BME280;4958;48.150;11.506;2023-01-26T11:28:35;95742.81;;;2.53;76.90
9839;BME280;4958;48.150;11.506;2023-01-26T11:31:31;95748.00;;;2.51;76.06
9839;BME280;4958;48.150;11.506;2023-01-26T11:34:09;95741.03;;;2.43;75.95
9839;BME280;4958;48.150;11.506;2023-01-26T11:36:47;95735.50;;;2.38;82.18
9839;BME280;4958;48.150;11.506;2023-01-26T11:39:24;95736.38;;;2.49;78.35
9839;BME280;4958;48.150;11.506;2023-01-26T11:42:08;95732.66;;;2.53;77.38
9839;BME280;4958;48.150;11.506;2023-01-26T11:45:07;95730.63;;;2.47;76.65
9839;BME280;4958;48.150;11.506;2023-01-26T11:47:57;95732.91;;;2.50;76.68
9839;BME280;4958;48.150;11.506;2023-01-26T11:50:34;95731.31;;;2.49;76.32
9839;BME280;4958;48.150;11.506;2023-01-26T11:53:24;95723.34;;;2.42;76.44
9839;BME280;4958;48.150;11.506;2023-01-26T11:56:15;95726.59;;;2.44;76.21
9839;BME280;4958;48.150;11.506;2023-01-26T11:59:15;95722.31;;;2.45;76.29
9839;BME280;4958;48.150;11.506;2023-01-26T12:02:23;95723.25;;;2.43;75.92
9839;BME280;4958;48.150;11.506;2023-01-26T12:04:53;95721.38;;;2.46;76.04
9839;BME280;4958;48.150;11.506;2023-01-26T12:07:28;95720.22;;;2.50;75.99
9839;BME280;4958;48.150;11.506;2023-01-26T12:13:09;95706.00;;;2.47;76.07
9839;BME280;4958;48.150;11.506;2023-01-26T12:15:58;95713.53;;;2.49;75.35
9839;BME280;4958;48.150;11.506;2023-01-26T12:18:34;95708.69;;;2.46;75.40
9839;BME280;4958;48.150;11.506;2023-01-26T12:21:07;95701.19;;;2.44;74.77
9839;BME280;4958;48.150;11.506;2023-01-26T12:23:43;95702.09;;;2.43;74.74
9839;BME280;4958;48.150;11.506;2023-01-26T12:27:11;95693.34;;;2.36;75.36
9839;BME280;4958;48.150;11.506;2023-01-26T12:37:42;95691.81;;;2.24;75.88
9839;BME280;4958;48.150;11.506;2023-01-26T12:53:18;95685.25;;;2.21;76.24
9839;BME280;4958;48.150;11.506;2023-01-26T12:58:58;95693.53;;;2.23;76.06
9839;BME280;4958;48.150;11.506;2023-01-26T13:05:28;95693.91;;;2.19;75.83
9839;BME280;4958;48.150;11.506;2023-01-26T13:17:46;95684.63;;;2.29;75.26
9839;BME280;4958;48.150;11.506;2023-01-26T13:36:50;95683.38;;;2.44;74.65
9839;BME280;4958;48.150;11.506;2023-01-26T13:50:30;95678.56;;;2.41;74.96
9839;BME280;4958;48.150;11.506;2023-01-26T14:04:31;95682.03;;;2.40;73.32
9839;BME280;4958;48.150;11.506;2023-01-26T14:07:42;95676.00;;;2.41;73.71
9839;BME280;4958;48.150;11.506;2023-01-26T14:10:45;95681.34;;;2.38;73.72
9839;BME280;4958;48.150;11.506;2023-01-26T14:14:15;95681.81;;;2.32;71.93
9839;BME280;4958;48.150;11.506;2023-01-26T14:17:21;95687.72;;;2.32;72.54
9839;BME280;4958;48.150;11.506;2023-01-26T14:26:56;95684.19;;;2.24;73.35
9839;BME280;4958;48.150;11.506;2023-01-26T14:29:42;95690.66;;;2.28;73.37
9839;BME280;4958;48.150;11.506;2023-01-26T14:43:35;95680.16;;;2.21;73.69
9839;BME280;4958;48.150;11.506;2023-01-26T14:53:33;95671.66;;;2.32;73.39
9839;BME280;4958;48.150;11.506;2023-01-26T14:56:55;95675.28;;;2.29;73.23
9839;BME280;4958;48.150;11.506;2023-01-26T14:59:48;95677.13;;;2.27;72.91
9839;BME280;4958;48.150;11.506;2023-01-26T15:05:35;95669.63;;;2.26;73.01
9839;BME280;4958;48.150;11.506;2023-01-26T15:08:40;95668.81;;;2.25;73.04
9839;BME280;4958;48.150;11.506;2023-01-26T15:11:50;95672.06;;;2.27;73.51
9839;BME280;4958;48.150;11.506;2023-01-26T15:14:37;95669.50;;;2.27;74.05
9839;BME280;4958;48.150;11.506;2023-01-26T15:17:53;95674.34;;;2.30;73.77
9839;BME280;4958;48.150;11.506;2023-01-26T15:21:14;95675.41;;;2.28;73.85
9839;BME280;4958;48.150;11.506;2023-01-26T15:24:16;95673.66;;;2.28;74.11
9839;BME280;4958;48.150;11.506;2023-01-26T15:27:31;95670.84;;;2.31;73.62
9839;BME280;4958;48.150;11.506;2023-01-26T15:30:23;95680.91;;;2.33;73.30
9839;BME280;4958;48.150;11.506;2023-01-26T15:37:00;95689.44;;;2.32;72.77
9839;BME280;4958;48.150;11.506;2023-01-26T15:39:58;95692.66;;;2.34;73.37
9839;BME280;4958;48.150;11.506;2023-01-26T15:42:39;95697.22;;;2.30;73.55
9839;BME280;4958;48.150;11.506;2023-01-26T15:45:37;95702.78;;;2.24;72.63
9839;BME280;4958;48.150;11.506;2023-01-26T15:57:47;95695.88;;;2.15;71.76
9839;BME280;4958;48.150;11.506;2023-01-26T16:00:34;95696.56;;;2.17;71.29
9839;BME280;4958;48.150;11.506;2023-01-26T16:03:28;95699.56;;;2.22;71.55
9839;BME280;4958;48.150;11.506;2023-01-26T16:06:27;95703.69;;;2.23;71.39
9839;BME280;4958;48.150;11.506;2023-01-26T16:09:05;95698.50;;;2.25;71.20